arxmliv
arxmliv build tool
 
KWARC group
LaTeXML
About
   
 

Detailed info

Back to Homepage

List of missing_macros

No. Date Filename num_warningnum_errornum_xmargok_xmargnum_xmathok_xmathMissing macros
99801 2013-03-11 23:56:00 /0711/0711.3795 2360000[\catchline]; 1 missing file[ws.sty].
99802 2013-03-11 23:55:49 /0711/0711.3798 030000[\extrasenglish, \dateenglish, \captionsenglish].
99803 2013-03-11 23:55:42 /0711/0711.3759 22110000[{lemma}, {theorem}, \inst, \keywords, {example}, \pagespan, \subjclass, {corollary}, {remark}, {acknowledgement}, {proposition}].
99804 2013-03-11 23:55:29 /0711/0711.3776 5770000[\mathds].
99805 2013-03-11 23:55:27 /0711/0711.3788 1210000[\fancyplain].
99806 2013-03-11 23:55:21 /0711/0711.3771 130000[\extrasenglish, \dateenglish, \captionsenglish].
99807 2013-03-11 23:55:08 /0711/0711.3736 7820000[\arabic, \eufm].
99808 2013-03-11 23:54:44 /0711/0711.3765 3060000[\SetLine, {algorithm}, \printfigures, \While]; 1 missing file[figcaps.sty].
99809 2013-03-11 23:54:11 /0711/0711.3750 0110000[\psfig, \bodymatter, \keywords]; 1 missing file[ws.sty].
99810 2013-03-11 23:54:07 /0711/0711.3728 3950000[{comment}]; 1 missing file[xy.sty].
99811 2013-03-11 23:54:02 /0711/0711.3751 110000[\IEEEpeerreviewmaketitle]; 1 missing file[IEEEtran.cls].
99812 2013-03-11 23:54:01 /0711/0711.3740 130000[\psfrag].
99813 2013-03-11 23:53:42 /0711/0711.3744 1140000[\Book, \Review, \pacs, \inst, \shortauthor, \institute, \acknowledgments, \Page, \Publ, \shorttitle, \Name, \Vol, \Year, \etal]; 1 missing file[epl2.cls].
99814 2013-03-11 23:53:39 /0711/0711.3743 150000[\psfig, \bodymatter, \keywords]; 1 missing file[ws.sty].
99815 2013-03-11 23:53:34 /0711/0711.3746 7150000[\Abstract, \ArticleName, {theorem}, \ShortArticleName, \FirstPageHeading, \Address, \pdfbookmark, \LastPageEnding, \Classification, \ArticleDates, \Author, \Email, \AuthorNameForHeading, \Keywords, {proposition}].
99816 2013-03-11 23:53:33 /0711/0711.3734 210000[\al@[].
99817 2013-03-11 23:53:05 /0711/0711.3730 240000[\affil, \apj, \aap]; 1 missing file[asp2006.sty].
99818 2013-03-11 23:53:03 /0711/0711.3732 040000[{theacknowledgments}, \layoutstyle, \classification]; 1 missing file[{aipcheck}].
99819 2013-03-11 23:52:58 /0711/0711.3715 040000[\theappendix, \theoremstyle, {proof}]; 1 missing file[HKamsthm.sty].
99820 2013-03-11 23:52:54 /0711/0711.3723 450000[\PACSes, \acknowledgments, \PACSit, \instlist, \from].
99821 2013-03-11 23:52:49 /0711/0711.3720 43150000[\affil, \citep, \accepted, \correspondence, \runningtitle, \includegraphics, \published, \runningauthor, \firstpage, \conclusions, \citet, {acknowledgements}, \introduction, \received, \pubdiscuss]; 1 missing file[copernicus.cls].
99822 2013-03-11 23:52:35 /0711/0711.3716 510000[\doublespace].
99823 2013-03-11 23:52:31 /0711/0711.3726 090000[\dt, \newabbrev, \midrule, \summary, \toprule, \bottomrule]; 3 missing files[dialogue.sty, snlp2007.sty, abbrevs.sty].
99824 2013-03-11 23:52:13 /0711/0711.3658 6780000[\omicron, Align, \xymatrix, \ar]; 1 missing file[xy.sty].
99825 2013-03-11 23:52:06 /0711/0711.3666 5210000[{comment}].
99826 2013-03-11 23:51:56 /0711/0711.3703 750000[\extrasenglish, \rrbracket, \llbracket, \dateenglish, \captionsenglish].
99827 2013-03-11 23:51:42 /0711/0711.3693 030000[\affil, \citep]; 1 missing file[asp2006.sty].
99828 2013-03-11 23:51:36 /0711/0711.3654 54120000[\naput, \Tp, \Tcircle, \psset, \TC, \Tc, \pstree, \nput, \tbput, \trput, \ncarc]; 1 missing file[pst-tree.sty].
99829 2013-03-11 23:51:36 /0711/0711.3696 170000[\inst, \object, \titlerunning, \offprints, \institute, \authorrunning, {acknowledgements}]; 1 missing file[mpe_report.cls].
99830 2013-03-11 23:51:17 /0711/0711.3683 310000[\smaller].
99831 2013-03-11 23:51:11 /0711/0711.3682 890000[\includegraphics, \shortauthors, \email, \shorttitle, \afiliations, \authors]; 1 missing file[icrctc07.sty].
99832 2013-03-11 23:51:05 /0711/0711.3642 114730000[Align, \xymatrix, \ar]; 1 missing file[xy.sty].
99833 2013-03-11 23:50:58 /0711/0711.3659 22200000[{sideways}, \node, \arrow, {diagram}]; 1 missing file[xy.sty].
99834 2013-03-11 23:50:58 /0711/0711.3672 140210000[{algorithm}, \RRresume, \titlehead, {algorithm*}, \RRprojet, \RRtitle, \makeRR, \RRetitle, \RRNo, \RRauthor, \URFuturs, \RRtheme, \THNum, \RRabstract, \RRdate, \RRmotcle, \RRkeyword]; 1 missing file[RR.sty].
99835 2013-03-11 23:50:50 /0711/0711.3689 040000[\affil, \plotone, \acknowledgements]; 1 missing file[asp2006.sty].
99836 2013-03-11 23:50:50 /0711/0711.3691 060000[\resume, \fancyfoot, {comment}, \motsClefs, \fancyhead]; 1 missing file[taln2006.sty].
99837 2013-03-11 23:50:44 /0711/0711.3692 030000[\extrasenglish, \dateenglish, \captionsenglish].
99838 2013-03-11 23:50:15 /0711/0711.3669 530000[\lTo, \rTo]; 1 missing file[concrete.sty].
99839 2013-03-11 23:50:08 /0711/0711.3645 15210000[\theappendix].
99840 2013-03-11 23:49:33 /0711/0711.3650 130000[{theacknowledgments}, \layoutstyle, \classification].
99841 2013-03-11 23:49:06 /0711/0711.3629 5210000[\rank, {lemma}, \om, {theorem}, \un, \ga, \C, \thmref, \Z, \di, \ti, \T, \sref, \lemref, \F, \de, {corollary}, \be, \al, {proof}]; 1 missing file[tedmath.sty].
99842 2013-03-11 23:48:53 /0711/0711.3647 6520000[\psfrag, {psfrags}].
99843 2013-03-11 23:48:34 /0711/0711.3641 040000[\nicefrac, \@end@institute, \astrosun]; 1 missing file[pslatex.sty].
99844 2013-03-11 23:48:29 /0711/0711.3648 7950000[\address, \runningheads, {Abstract}, \coauthor, {start}]; 1 missing file[lt7-proc.cls].
99845 2013-03-11 23:47:52 /0711/0711.3620 3130000[\geometry].
99846 2013-03-11 23:47:19 /0711/0711.3635 450000[\address, \sodtitle, \lat, \PACS, \rtitle].
99847 2013-03-11 23:47:12 /0711/0711.3612 620000[{sidewaystable*}].
99848 2013-03-11 23:47:01 /0711/0711.3622 3330000[\address, \bodymatter, \keywords]; 1 missing file[ws-procs9x6mod.cls].
99849 2013-03-11 23:46:43 /0711/0711.3588 23530000[Align, \xyoption, \xymatrix, \ar]; 1 missing file[xy.sty].
99850 2013-03-11 23:46:33 /0711/0711.3600 1260000[\EOM, \Lag, \Ord, \txt]; 2 missing files[often_used_commands.sty, parskip.sty].
99851 2013-03-11 23:46:00 /0711/0711.3596 440000[\extrasenglish, \geometry, \dateenglish, \captionsenglish].
99852 2013-03-11 23:45:49 /0711/0711.3616 040000[\inst, \institute, \acknowledgements, \authorrunning].
99853 2013-03-11 23:45:36 /0711/0711.3582 5640000[\drawline].
99854 2013-03-11 23:45:26 /0711/0711.3584 2170000[\affil, \apj, \lesssim, \citep, \aap, \email, \pasp, \araa, \KeyWords, \skytel, \aj, \apjlett, \mnras, \apjs, \FigureFile, \citet, \fdg]; 1 missing file[pasj00.cls].
99855 2013-03-11 23:45:24 /0711/0711.3604 2230000[\affil, \acknowledgements]; 1 missing file[asp2006.sty].
99856 2013-03-11 23:45:23 /0711/0711.3593 010000[\theappendix].
99857 2013-03-11 23:45:13 /0711/0711.3594 1230000[{algorithm}].
99858 2013-03-11 23:45:09 /0711/0711.3592 150000[\hepph, \href, \physics, \astroph, \keywords]; 1 missing file[JINST.cls].
99859 2013-03-11 23:45:06 /0711/0711.3579 3440000[Align, \xymatrix, \ar]; 1 missing file[xy.sty].
99860 2013-03-11 23:44:34 /0711/0711.3568 6340000[Align, \xymatrix, \ar]; 1 missing file[xy.sty].
99861 2013-03-11 23:44:08 /0711/0711.3545 2330000[{keywords}, \endproof, {proof}]; 1 missing file[IEEEtran.cls].
99862 2013-03-11 23:44:05 /0711/0711.3564 050000[\affil, \plotone, \citet, \plottwo]; 1 missing file[asp2006.sty].
99863 2013-03-11 23:44:03 /0711/0711.3555 4310000[\theappendix].
99864 2013-03-11 23:43:54 /0711/0711.3572 010000[\pdfcompresslevel].
99865 2013-03-11 23:43:48 /0711/0711.3554 240000[\catchline, {history}, \revised, \received].
99866 2013-03-11 23:43:42 /0711/0711.3541 8920000[\psfrag, \geometry].
99867 2013-03-11 23:43:40 /0711/0711.3544 1130000[\Abstract, \ArticleName, \EmailD, \ShortArticleName, \FirstPageHeading, \Address, \pdfbookmark, \LastPageEnding, \Classification, \ArticleDates, \Author, \AuthorNameForHeading, \Keywords].
99868 2013-03-11 23:43:36 /0711/0711.3556 090000[\psfig, \tbl, \refcite, \keywords, \colrule, \bodymatter, \botrule, \toprule]; 1 missing file[ws.sty].
99869 2013-03-11 23:43:32 /0711/0711.3548 19100000[\affil, \resizebox, \emails, \keywords, \ams, \includegraphics, \address, \corrauth, \comma, \affilnum]; 1 missing file[cicp.cls].
99870 2013-03-11 23:43:20 /0711/0711.3543 330000[\pacs, \institute, \etal]; 1 missing file[epl2.cls].
99871 2013-03-11 23:43:20 /0711/0711.3561 130000[\authorblockN, \authorrefmark, \authorblockA]; 1 missing file[IEEEtran.cls].
99872 2013-03-11 23:43:17 /0711/0711.3546 650000[\catchline, {history}, \revised, \keywords, \received].
99873 2013-03-11 23:43:00 /0711/0711.3525 5130000[{keywords}, \PARstart, \IEEEoverridecommandlockouts].
99874 2013-03-11 23:42:41 /0711/0711.3538 1710000[\nicefrac]; 1 missing file[scrartcl.cls].
99875 2013-03-11 23:42:37 /0711/0711.3535 950000[\catchline, {history}, \revised, \keywords, \received].
99876 2013-03-11 23:42:23 /0711/0711.3521 9100000[\pacs, \inst, \shortauthor, \institute, \onefigure, \acknowledgments, \shorttitle, \etal]; 1 missing file[epl2.cls].
99877 2013-03-11 23:42:19 /0711/0711.3523 310000[\normalem].
99878 2013-03-11 23:42:13 /0711/0711.3491 7360000[\mnras, \apj, \aj]; 1 missing file[aas_macros.sty].
99879 2013-03-11 23:42:03 /0711/0711.3489 223150000[\theequation].
99880 2013-03-11 23:41:40 /0711/0711.3504 20110000[\tablefont, \catchline, \graphicspath, \refcite, \includegraphics, \colrule, {history}, \botrule, \revised, \toprule, \received].
99881 2013-03-11 23:41:39 /0711/0711.3499 010000[\theappendix].
99882 2013-03-11 23:41:35 /0711/0711.3505 2130000[\pra, \ocis, \opex, \rmp, \nat, \prl, \theappendix, \apl, \address, \email, \jmo, \prb, {abstract*}].
99883 2013-03-11 23:41:22 /0711/0711.3506 360000[\a, \psfig, \bodymatter, \refcite, \keywords]; 1 missing file[ws.sty].
99884 2013-03-11 23:41:18 /0711/0711.3480 2540000[Align, \xymatrix, \ar]; 1 missing file[xy.sty].
99885 2013-03-11 23:40:50 /0711/0711.3481 3280000[\theappendix, \apjs, \mnras, \apj, \aj, \apjl, \aap]; 1 missing file[aas_macros.sty].
99886 2013-03-11 23:40:48 /0711/0711.3471 5010000[\psfrag].
99887 2013-03-11 23:40:44 /0711/0711.3479 050000[\hexagon].
99888 2013-03-11 23:40:30 /0711/0711.3464 3560000[Align, {xy}, \xymatrixcolsep, \xymatrix, \ar]; 1 missing file[xy.sty].
99889 2013-03-11 23:40:26 /0711/0711.3430 32240000[Align, \xymatrix, \ar]; 1 missing file[xy.sty].
99890 2013-03-11 23:39:46 /0711/0711.3474 030000[{theacknowledgments}, \layoutstyle, \classification].
99891 2013-03-11 23:39:36 /0711/0711.3407 28220000[\theappendix, Align].
99892 2013-03-11 23:39:36 /0711/0711.3455 370000[\editors, \affiliation, \jname, \pagerange, \keywords, \volume, \pubyear]; 1 missing file[iaus.cls].
99893 2013-03-11 23:39:34 /0711/0711.3458 190000[\affil, \apj, \plotone, \aj, \citep, \acknowledgements, \aap]; 1 missing file[asp2006.sty].
99894 2013-03-11 23:38:42 /0711/0711.3435 520000[\theappendix].
99895 2013-03-11 23:38:17 /0711/0711.3422 3140000[{theacknowledgments}, \layoutstyle, \classification]; 1 missing file[{aipcheck}].
99896 2013-03-11 23:37:42 /0711/0711.3420 030000[\extrasenglish, \dateenglish, \captionsenglish].
99897 2013-03-11 23:37:00 /0711/0711.3409 150000[\affil, \mnras, \aj, \citep, \keywords]; 1 missing file[vospwks2007.cls].
99898 2013-03-11 23:36:56 /0711/0711.3402 1830000[\captionnamefont, \precaption]; 1 missing file[ccaption.sty].
99899 2013-03-11 23:36:30 /0711/0711.3398 430000[{IEEEkeywords}, \IEEEPARstart, \citet]; 1 missing file[IEEEtran.cls].
99900 2013-03-11 23:36:12 /0711/0711.3372 1810000[\psfrag].
99901 2013-03-11 23:35:45 /0711/0711.3380 25130000[Align, \xymatrix, \normalem, \ar]; 9 missing files[xycurve.sty, xymatrix.sty, xyline.sty, xyarrow.sty, xycmtip.sty, xycolor.sty, xyrotate.sty, xyframe.sty, xygraph.sty].
99902 2013-03-11 23:35:42 /0711/0711.3345 8660000[\mathds, \fancyplain]; 1 missing file[easymat.sty].
99903 2013-03-11 23:35:41 /0711/0711.3392 1010000[\psfrag].
99904 2013-03-11 23:35:33 /0711/0711.3393 0110000[\lesssim, \epsfig, \refcite, \tbl, \keywords, \colrule, \gtrsim, \bodymatter, \botrule, \toprule]; 1 missing file[ws.sty].
99905 2013-03-11 23:35:31 /0711/0711.3365 750000[\urladdr, \subjclass, \email, \keywords, \CompileMatrices].
99906 2013-03-11 23:35:25 /0711/0711.3371 1910000[\owedge].
99907 2013-03-11 23:34:48 /0711/0711.3367 12100000[\includegraphics, \ShortTitle, \email, \FullConference, \speaker]; 1 missing file[PoS.cls].
99908 2013-03-11 23:34:41 /0711/0711.3347 5150000[\Abstract, {lemma}, \ArticleName, {theorem}, \ShortArticleName, \FirstPageHeading, \Address, \pdfbookmark, \LastPageEnding, \Classification, \ArticleDates, \Author, \Email, \AuthorNameForHeading, \Keywords].
99909 2013-03-11 23:34:31 /0711/0711.3373 440000[\affil, \citep, \citet, \keywords]; 1 missing file[vospwks2007.cls].
99910 2013-03-11 23:34:20 /0711/0711.3350 5520000[\title, \date].
99911 2013-03-11 23:34:18 /0711/0711.3255 3940000[Align, \xymatrix, \ar]; 1 missing file[xy.sty].
99912 2013-03-11 23:34:13 /0711/0711.3349 530000[\bodymatter, \keywords]; 1 missing file[ws.sty].
99913 2013-03-11 23:34:05 /0711/0711.3229 4830000[\psfrag, {psfrags}].
99914 2013-03-11 23:34:03 /0711/0711.3346 460000[\ccode, \address, \catchline, \refcite, \pub, \keywords]; 1 missing file[ws-mpla2.cls].
99915 2013-03-11 23:33:31 /0711/0711.3339 750000[\includegraphics, \ShortTitle, \email, \FullConference, \speaker]; 1 missing file[PoS.cls].
99916 2013-03-11 23:33:22 /0711/0711.3341 250000[\bodymatter, \toprule, \tbl, \keywords]; 1 missing file[ws.sty].
99917 2013-03-11 23:33:14 /0711/0711.3283 360000[{acknowledgments}, \affil, \conflictofinterest, {article}, \keywords]; 2 missing files[pnastwof.sty, pnastwo.cls].
99918 2013-03-11 23:33:04 /0711/0711.3247 620000[\appendices, {proof}]; 1 missing file[IEEEtran.cls].
99919 2013-03-11 23:32:41 /0711/0711.3266 1290000[\apj, \timeform, \endfirsthead, \aap, \endfoot, \Accepted, \email, \araa, \endlastfoot, \KeyWords, {longtable}, \endhead, \solphys, \altaffilmark, \Received, \mnras, Align, \FigureFile, \altaffiltext, \SetRunningHead]; 1 missing file[pasj00.cls].
99920 2013-03-11 23:32:40 /0711/0711.3270 040000[\extrasenglish, \dateenglish, \captionsenglish]; 1 missing file[pslatex.sty].
99921 2013-03-11 23:32:32 /0711/0711.3261 230000[\kword, \abst, \inst].
99922 2013-03-11 23:32:18 /0711/0711.3260 110000[\mathds].
99923 2013-03-11 23:32:16 /0711/0711.3251 1840000[\authorblockN, \authorblockA, \appendices, {proof}]; 1 missing file[IEEEtran.cls].
99924 2013-03-11 23:32:11 /0711/0711.3259 660000[\address, \thanksref, \PACS, \sep, {frontmatter}, {keyword}]; 1 missing file[PHYEAUTH.cls].
99925 2013-03-11 23:32:08 /0711/0711.3235 6110000[\citeyear].
99926 2013-03-11 23:32:07 /0711/0711.3242 8410000[\theappendix].
99927 2013-03-11 23:32:04 /0711/0711.3236 1670000[\FloatBarrier].
99928 2013-03-11 23:32:01 /0711/0711.3248 3410000[\arXivid].
99929 2013-03-11 23:31:56 /0711/0711.3208 6130000[{overpic}].
99930 2013-03-11 23:31:02 /0711/0711.3219 2390000[\young]; 1 missing file[xy.sty].
99931 2013-03-11 23:30:57 /0711/0711.3234 490000[\catchline, \gtrsim, \lesssim, \epsfig, \pub, \keywords]; 1 missing file[ws.sty].
99932 2013-03-11 23:30:47 /0711/0711.3232 010000[\citeauthoryear].
99933 2013-03-11 23:30:29 /0711/0711.3215 020000[\Chapter]; 1 missing file[multind.sty].
99934 2013-03-11 23:30:28 /0711/0711.3201 41500000[\@esphack, \@bsphack, \if@rl]; 1 missing file[lhe.fontmap].
99935 2013-03-11 23:30:21 /0711/0711.3183 3310000[\cent].
99936 2013-03-11 23:30:16 /0711/0711.3217 1130000[\FIGURE, \preprint, \email, \TABLE, \keywords]; 1 missing file[JINST.cls].
99937 2013-03-11 23:30:04 /0711/0711.3223 130000[{theacknowledgments}, \layoutstyle, \classification].
99938 2013-03-11 23:30:03 /0711/0711.3207 310000[\slashed].
99939 2013-03-11 23:29:58 /0711/0711.3203 65450000[\slabel, Align, {subeqnarray}].
99940 2013-03-11 23:29:18 /0711/0711.3195 110000[\citen].
99941 2013-03-11 23:29:15 /0711/0711.3177 3050000[\node, \arrow, {diagram}].
99942 2013-03-11 23:29:05 /0711/0711.3143 18840000[\@lign, \displ@y].
99943 2013-03-11 23:28:56 /0711/0711.3202 120000[\subfloat, \subref].
99944 2013-03-11 23:28:53 /0711/0711.3155 4710000[\psfrag].
99945 2013-03-11 23:28:34 /0711/0711.3190 0140000[\ptl, \tsub, \unit, \re, \vect, \e, \ohm, \micro, \del, \paren, \evalu, \degree]; 2 missing files[gensymb.sty, benc.sty].
99946 2013-03-11 23:28:32 /0711/0711.3179 030000[\theappendix, \onlfig, \onltab].
99947 2013-03-11 23:28:15 /0711/0711.3160 12140000[\includegraphics, \ShortTitle, \email, \FullConference, \speaker]; 1 missing file[PoS.cls].
99948 2013-03-11 23:28:03 /0711/0711.3180 3150000[\subfloat, \subref, \hexstar].
99949 2013-03-11 23:27:47 /0711/0711.3181 380000[\firstsection, \editors, \affiliation, \jname, \pagerange, \keywords, \volume, \pubyear]; 1 missing file[iaus.cls].
99950 2013-03-11 23:27:46 /0711/0711.3164 1210000[\ack].
99951 2013-03-11 23:27:37 /0711/0711.3168 4120000[\citeauthoryear, \citeyear, \surname, \institute, \runningtitle, {opening}, {article}, \keywords, \sep, \runningauthor, {acknowledgements}]; 2 missing files[spr-sola-addons.sty, SolarPhysics.cls].
99952 2013-03-11 23:27:34 /0711/0711.3162 010000[\theappendix].
99953 2013-03-11 23:27:14 /0711/0711.3096 14190000[{sidewaystable}, Align, \xymatrix, \ar].
99954 2013-03-11 23:26:35 /0711/0711.3138 1110000[\psfrag].
99955 2013-03-11 23:26:27 /0711/0711.3141 230000[\affil, \keywords]; 1 missing file[asp2006.sty].
99956 2013-03-11 23:26:16 /0711/0711.3134 450000[{example}, {lemma}, {theorem}, {corollary}, {proposition}].
99957 2013-03-11 23:26:06 /0711/0711.3128 0170000[\conferenceinfo, \affaddr, \toappear, \numberofauthors, \alignauthor, \crdata, \email, \CopyrightYear, \confname].
99958 2013-03-11 23:25:47 /0711/0711.3133 050000[\citep, \altaffiltext, \plottwo, \altaffilmark]; 1 missing file[asp2006.sty].
99959 2013-03-11 23:25:42 /0711/0711.3118 1100000[\aftertab, \lasthline, \beforetab, \institute, \midhline, \runningtitle, \captionaftertab, {acknowledge}, \runningauthor, \firsthline]; 1 missing file[FBSart.cls].
99960 2013-03-11 23:25:42 /0711/0711.3119 330000[\address, \abstracts]; 1 missing file[13lomcon.sty].
99961 2013-03-11 23:25:37 /0711/0711.3125 1140000[\citeauthoryear, \citeyear, \surname, \lesssim, \institute, \runningtitle, {opening}, {article}, \keywords, \sep, \runningauthor, \inlinecite, {acknowledgements}]; 2 missing files[spr-sola-addons.sty, SolarPhysics.cls].
99962 2013-03-11 23:25:05 /0711/0711.3077 9750000[{keywords}, \QED, \IEEEpeerreviewmaketitle, \IEEEmembership, {proof}]; 1 missing file[IEEEtran.cls].
99963 2013-03-11 23:24:56 /0711/0711.3098 13120000[\aftertab, \instnr, \lasthline, \beforetab, \midhline, \runningtitle, \captionaftertab, {acknowledge}, \runningauthor, \firsthline, \received, \instlist]; 1 missing file[FBSart.cls].
99964 2013-03-11 23:24:46 /0711/0711.3101 430000[{theacknowledgments}, \layoutstyle, \classification].
99965 2013-03-11 23:24:27 /0711/0711.3084 050000[\Chapter]; 1 missing file[multind.sty].
99966 2013-03-11 23:23:29 /0711/0711.3078 630000[\kword, \abst, \inst].
99967 2013-03-11 23:23:15 /0711/0711.3032 1210000[\mathds].
99968 2013-03-11 23:23:12 /0711/0711.3065 4100000[\includegraphics, \bodymatter, \keywords]; 1 missing file[ws.sty].
99969 2013-03-11 23:23:08 /0711/0711.3060 1040000[Align, \xymatrix, \ar]; 1 missing file[xy.sty].
99970 2013-03-11 23:22:53 /0711/0711.3058 2670000[{boxedminipage}, \whiten, \ellipse, \dashline, \blacken, \path]; 1 missing file[boxedminipage.sty].
99971 2013-03-11 23:22:37 /0711/0711.3053 010000[\ead].
99972 2013-03-11 23:22:18 /0711/0711.3044 28200000[\smaller].
99973 2013-03-11 23:21:43 /0711/0711.3048 930000[\ShortTitle, \FullConference, \speaker]; 1 missing file[PoS.cls].
99974 2013-03-11 23:21:41 /0711/0711.3047 350000[\authorinfo, \skiplinehalf, \acknowledgments, \keywords, \supit]; 1 missing file[spie.cls].
99975 2013-03-11 23:21:25 /0711/0711.3023 20140000[Align, \xymatrix, \ar].
99976 2013-03-11 23:21:23 /0711/0711.3019 2220000[\theappendix]; 1 missing file[hcolor.sty].
99977 2013-03-11 23:20:48 /0711/0711.3024 030000[{theacknowledgments}, \layoutstyle, \classification].
99978 2013-03-11 23:20:36 /0711/0711.3029 040000[{theacknowledgments}, \layoutstyle, \classification]; 1 missing file[{aipcheck}].
99979 2013-03-11 23:20:28 /0711/0711.3030 1880000[\t@gsin, \t@gline, \ftn@mber, \alloc@].
99980 2013-03-11 23:20:00 /0711/0711.3001 020000[\layoutstyle, \classification].
99981 2013-03-11 23:19:55 /0711/0711.3003 210000[\ead].
99982 2013-03-11 23:19:33 /0711/0711.2990 24100000[\@footnotetext]; 9 missing files[xycurve.sty, xymatrix.sty, xyline.sty, xyarrow.sty, xycmtip.sty, xycolor.sty, xyrotate.sty, xyframe.sty, xygraph.sty].
99983 2013-03-11 23:19:05 /0711/0711.2965 5550000[Align, \xymatrix, \ar]; 1 missing file[xy.sty].
99984 2013-03-11 23:18:59 /0711/0711.2989 410000[\theappendix].
99985 2013-03-11 23:18:29 /0711/0711.2986 16180000[\includegraphics, \institute]; 1 missing file[texnames.sty].
99986 2013-03-11 23:18:29 /0711/0711.2988 910000[\ead].
99987 2013-03-11 23:18:00 /0711/0711.2976 0160000[\inst, \accepted, \Month, \publonline, \email, \titlerunning, \fnmsep, \authorrunning, \received, \Issue, \Yearsubmission, \institute, \Yearpublication, \Volume, \Pagespan, \acknowledgements].
99988 2013-03-11 23:17:40 /0711/0711.2962 3240000[\apj, \lesssim, \timeform, \pasj, \endfirsthead, \aap, \Accepted, \email, \endlastfoot, \KeyWords, \draft, {longtable}, \endhead, \altaffilmark, \Received, \apjs, Align, \FigureFile, \gtrsim, \altaffiltext, \SetRunningHead]; 1 missing file[pasj00.cls].
99989 2013-03-11 23:17:15 /0711/0711.2943 980000[{graph}, \freetext, \mathds, \diredge, \roundnode, \opaquetextfalse, \autonodetext, \dirbow].
99990 2013-03-11 23:17:11 /0711/0711.2952 090000[\citeauthoryear, \surname, \shortcite, \runningauthor, \institute, {opening}, {article}, \keywords, \newdisplay].
99991 2013-03-11 23:17:05 /0711/0711.2955 490000[{acknowledgments}, \firstsection, \editors, \affiliation, \jname, \pagerange, \keywords, \volume, \pubyear]; 1 missing file[iaus.cls].
99992 2013-03-11 23:16:55 /0711/0711.2958 130000[\inst, \institute, {acknowledgements}]; 1 missing file[mpe_report.cls].
99993 2013-03-11 23:16:29 /0711/0711.2928 1240000[Align, \xymatrix, \ar]; 1 missing file[xy.sty].
99994 2013-03-11 23:16:12 /0711/0711.2931 210000[\ead].
99995 2013-03-11 23:15:57 /0711/0711.2903 11530000[\institute].
99996 2013-03-11 23:15:42 /0711/0711.2919 0190000[\theappendix].
99997 2013-03-11 23:15:03 /0711/0711.2895 19810000[\theappendix].
99998 2013-03-11 23:14:38 /0711/0711.2911 3010000[\linenumbers].
99999 2013-03-11 23:13:53 /0711/0711.2890 4240000[\Vertex, \Text, \ArrowLine, \DashLine].
100000 2013-03-11 23:13:53 /0711/0711.2901 510000[\slashed].
<<< >>>

[0] [200] [400] [600] [800] [1000] [1200] [1400] [1600] [1800] [2000] [2200] [2400] [2600] [2800] [3000] [3200] [3400] [3600] [3800] [4000] [4200] [4400] [4600] [4800] [5000] [5200] [5400] [5600] [5800] [6000] [6200] [6400] [6600] [6800] [7000] [7200] [7400] [7600] [7800] [8000] [8200] [8400] [8600] [8800] [9000] [9200] [9400] [9600] [9800] [10000] [10200] [10400] [10600] [10800] [11000] [11200] [11400] [11600] [11800] [12000] [12200] [12400] [12600] [12800] [13000] [13200] [13400] [13600] [13800] [14000] [14200] [14400] [14600] [14800] [15000] [15200] [15400] [15600] [15800] [16000] [16200] [16400] [16600] [16800] [17000] [17200] [17400] [17600] [17800] [18000] [18200] [18400] [18600] [18800] [19000] [19200] [19400] [19600] [19800] [20000] [20200] [20400] [20600] [20800] [21000] [21200] [21400] [21600] [21800] [22000] [22200] [22400] [22600] [22800] [23000] [23200] [23400] [23600] [23800] [24000] [24200] [24400] [24600] [24800] [25000] [25200] [25400] [25600] [25800] [26000] [26200] [26400] [26600] [26800] [27000] [27200] [27400] [27600] [27800] [28000] [28200] [28400] [28600] [28800] [29000] [29200] [29400] [29600] [29800] [30000] [30200] [30400] [30600] [30800] [31000] [31200] [31400] [31600] [31800] [32000] [32200] [32400] [32600] [32800] [33000] [33200] [33400] [33600] [33800] [34000] [34200] [34400] [34600] [34800] [35000] [35200] [35400] [35600] [35800] [36000] [36200] [36400] [36600] [36800] [37000] [37200] [37400] [37600] [37800] [38000] [38200] [38400] [38600] [38800] [39000] [39200] [39400] [39600] [39800] [40000] [40200] [40400] [40600] [40800] [41000] [41200] [41400] [41600] [41800] [42000] [42200] [42400] [42600] [42800] [43000] [43200] [43400] [43600] [43800] [44000] [44200] [44400] [44600] [44800] [45000] [45200] [45400] [45600] [45800] [46000] [46200] [46400] [46600] [46800] [47000] [47200] [47400] [47600] [47800] [48000] [48200] [48400] [48600] [48800] [49000] [49200] [49400] [49600] [49800] [50000] [50200] [50400] [50600] [50800] [51000] [51200] [51400] [51600] [51800] [52000] [52200] [52400] [52600] [52800] [53000] [53200] [53400] [53600] [53800] [54000] [54200] [54400] [54600] [54800] [55000] [55200] [55400] [55600] [55800] [56000] [56200] [56400] [56600] [56800] [57000] [57200] [57400] [57600] [57800] [58000] [58200] [58400] [58600] [58800] [59000] [59200] [59400] [59600] [59800] [60000] [60200] [60400] [60600] [60800] [61000] [61200] [61400] [61600] [61800] [62000] [62200] [62400] [62600] [62800] [63000] [63200] [63400] [63600] [63800] [64000] [64200] [64400] [64600] [64800] [65000] [65200] [65400] [65600] [65800] [66000] [66200] [66400] [66600] [66800] [67000] [67200] [67400] [67600] [67800] [68000] [68200] [68400] [68600] [68800] [69000] [69200] [69400] [69600] [69800] [70000] [70200] [70400] [70600] [70800] [71000] [71200] [71400] [71600] [71800] [72000] [72200] [72400] [72600] [72800] [73000] [73200] [73400] [73600] [73800] [74000] [74200] [74400] [74600] [74800] [75000] [75200] [75400] [75600] [75800] [76000] [76200] [76400] [76600] [76800] [77000] [77200] [77400] [77600] [77800] [78000] [78200] [78400] [78600] [78800] [79000] [79200] [79400] [79600] [79800] [80000] [80200] [80400] [80600] [80800] [81000] [81200] [81400] [81600] [81800] [82000] [82200] [82400] [82600] [82800] [83000] [83200] [83400] [83600] [83800] [84000] [84200] [84400] [84600] [84800] [85000] [85200] [85400] [85600] [85800] [86000] [86200] [86400] [86600] [86800] [87000] [87200] [87400] [87600] [87800] [88000] [88200] [88400] [88600] [88800] [89000] [89200] [89400] [89600] [89800] [90000] [90200] [90400] [90600] [90800] [91000] [91200] [91400] [91600] [91800] [92000] [92200] [92400] [92600] [92800] [93000] [93200] [93400] [93600] [93800] [94000] [94200] [94400] [94600] [94800] [95000] [95200] [95400] [95600] [95800] [96000] [96200] [96400] [96600] [96800] [97000] [97200] [97400] [97600] [97800] [98000] [98200] [98400] [98600] [98800] [99000] [99200] [99400] [99600] [99800] [100000] [100200] [100400] [100600] [100800] [101000] [101200] [101400] [101600] [101800] [102000] [102200] [102400] [102600] [102800] [103000] [103200] [103400] [103600] [103800] [104000] [104200] [104400] [104600] [104800] [105000] [105200] [105400] [105600] [105800] [106000] [106200] [106400] [106600] [106800] [107000] [107200] [107400] [107600] [107800] [108000] [108200] [108400] [108600] [108800] [109000] [109200] [109400] [109600] [109800] [110000] [110200] [110400] [110600] [110800] [111000] [111200] [111400] [111600] [111800] [112000] [112200] [112400] [112600] [112800] [113000] [113200] [113400] [113600] [113800] [114000] [114200] [114400] [114600] [114800] [115000] [115200] [115400] [115600] [115800] [116000] [116200] [116400] [116600] [116800] [117000] [117200] [117400] [117600] [117800] [118000] [118200] [118400] [118600] [118800] [119000] [119200] [119400] [119600] [119800] [120000] [120200] [120400] [120600] [120800] [121000] [121200] [121400] [121600] [121800] [122000] [122200] [122400] [122600] [122800] [123000] [123200] [123400] [123600] [123800] [124000] [124200] [124400] [124600] [124800] [125000] [125200] [125400] [125600] [125800] [126000] [126200] [126400] [126600] [126800] [127000] [127200] [127400] [127600] [127800] [128000] [128200] [128400] [128600] [128800] [129000] [129200] [129400] [129600] [129800] [130000] [130200] [130400] [130600] [130800] [131000] [131200] [131400] [131600] [131800] [132000] [132200] [132400] [132600] [132800] [133000] [133200] [133400] [133600] [133800] [134000] [134200] [134400] [134600] [134800] [135000] [135200] [135400] [135600] [135800] [136000] [136200] [136400] [136600] [136800] [137000] [137200] [137400] [137600] [137800] [138000] [138200] [138400] [138600] [138800] [139000] [139200] [139400] [139600] [139800] [140000] [140200] [140400] [140600] [140800] [141000] [141200] [141400] [141600] [141800] [142000] [142200] [142400] [142600] [142800] [143000] [143200] [143400] [143600] [143800] [144000] [144200] [144400] [144600] [144800] [145000] [145200] [145400] [145600] [145800] [146000] [146200] [146400] [146600] [146800] [147000] [147200] [147400] [147600] [147800] [148000] [148200] [148400] [148600] [148800] [149000] [149200] [149400] [149600] [149800] [150000] [150200] [150400] [150600] [150800] [151000] [151200] [151400] [151600] [151800] [152000] [152200] [152400] [152600] [152800] [153000] [153200] [153400] [153600] [153800] [154000] [154200] [154400] [154600] [154800] [155000] [155200] [155400] [155600] [155800] [156000] [156200] [156400] [156600] [156800] [157000] [157200] [157400] [157600] [157800] [158000] [158200] [158400] [158600] [158800] [159000] [159200] [159400] [159600] [159800] [160000] [160200] [160400] [160600] [160800] [161000] [161200] [161400] [161600] [161800] [162000] [162200] [162400] [162600] [162800] [163000] [163200] [163400] [163600] [163800] [164000] [164200] [164400] [164600]
 
  The service has been written by
Heinrich Stamerjohanns